Aviation Digital Data Service (ADDS)

Output produced by TAFs form (0102 UTC 22 September 2017)
found at http://www.aviationweather.gov/adds/tafs/
 
METAR text: WADD 220030Z VRB01KT 9999 FEW017 27/23 Q1013 NOSIG
Conditions at: WADD (BALI INTL , ID) observed 0030 UTC 22 September 2017
Temperature: 27.0°C (81°F)
Dewpoint: 23.0°C (73°F) [RH = 79%]
Pressure (altimeter): 29.91 inches Hg (1013.0 mb)
Winds: variable direction winds at 1 MPH (1 knots; 0.5 m/s)
Visibility: 6 or more miles (10+ km)
Ceiling: at least 12,000 feet AGL
Clouds: few clouds at 1700 feet AGL
Weather: no significant weather observed at this time

Forecast for: WADD (BALI INTL , ID)
Text: TAF WADD 212300Z 2200/2300 VRB05KT 9999 SCT017
Forecast period: 0000 to 0200 UTC 22 September 2017
Forecast type: FROM: standard forecast or significant change
Winds: variable direction winds at 6 MPH (5 knots; 2.6 m/s)
Visibility: 6 or more miles (10+ km)
Clouds: scattered clouds at 1700 feet AGL
Weather: no significant weather forecast for this period
Text: BECMG 2202/2204 12010KT
Forecast period: 0200 UTC 22 September 2017 to 0000 UTC 23 September 2017
Forecast type: BECOMING: Conditions expected to become as follows by 0400 UTC 22 September 2017
Winds: from the ESE (120 degrees) at 12 MPH (10 knots; 5.2 m/s)
Visibility: 6 or more miles (10+ km)
Clouds: scattered clouds at 1700 feet AGL
Weather: no significant weather forecast for this period